sensor_id;sensor_type;location;lat;lon;timestamp;temperature;humidity
23371;DHT22;11858;51.056;3.712;2023-07-20T00:01:58;17.20;99.90
23371;DHT22;11858;51.056;3.712;2023-07-20T00:04:24;17.20;99.90
23371;DHT22;11858;51.056;3.712;2023-07-20T00:06:49;17.10;99.90
23371;DHT22;11858;51.056;3.712;2023-07-20T00:09:15;17.10;99.90
23371;DHT22;11858;51.056;3.712;2023-07-20T00:11:49;17.10;99.90
23371;DHT22;11858;51.056;3.712;2023-07-20T00:14:16;17.10;99.90
23371;DHT22;11858;51.056;3.712;2023-07-20T00:16:42;17.00;99.90
23371;DHT22;11858;51.056;3.712;2023-07-20T00:19:08;16.90;99.90
23371;DHT22;11858;51.056;3.712;2023-07-20T00:21:35;16.90;99.90
23371;DHT22;11858;51.056;3.712;2023-07-20T00:24:01;16.90;99.90
23371;DHT22;11858;51.056;3.712;2023-07-20T00:26:27;16.80;99.90
23371;DHT22;11858;51.056;3.712;2023-07-20T00:28:52;16.80;99.90
23371;DHT22;11858;51.056;3.712;2023-07-20T00:31:18;16.70;99.90
23371;DHT22;11858;51.056;3.712;2023-07-20T00:33:44;16.70;99.90
23371;DHT22;11858;51.056;3.712;2023-07-20T00:36:09;16.70;99.90
23371;DHT22;11858;51.056;3.712;2023-07-20T00:38:35;16.70;99.90
23371;DHT22;11858;51.056;3.712;2023-07-20T00:41:01;16.60;99.90
23371;DHT22;11858;51.056;3.712;2023-07-20T00:43:27;16.60;99.90
23371;DHT22;11858;51.056;3.712;2023-07-20T00:45:52;16.50;99.90
23371;DHT22;11858;51.056;3.712;2023-07-20T00:48:18;16.50;99.90
23371;DHT22;11858;51.056;3.712;2023-07-20T00:50:45;16.50;99.90
23371;DHT22;11858;51.056;3.712;2023-07-20T00:53:11;16.40;99.90
23371;DHT22;11858;51.056;3.712;2023-07-20T00:55:37;16.40;99.90
23371;DHT22;11858;51.056;3.712;2023-07-20T00:58:03;16.30;99.90
23371;DHT22;11858;51.056;3.712;2023-07-20T01:00:29;16.40;99.90
23371;DHT22;11858;51.056;3.712;2023-07-20T01:02:55;16.30;99.90
23371;DHT22;11858;51.056;3.712;2023-07-20T01:05:21;16.30;99.90
23371;DHT22;11858;51.056;3.712;2023-07-20T01:08:10;16.20;99.90
23371;DHT22;11858;51.056;3.712;2023-07-20T01:10:46;16.10;99.90
23371;DHT22;11858;51.056;3.712;2023-07-20T01:13:18;16.20;99.90
23371;DHT22;11858;51.056;3.712;2023-07-20T01:15:52;16.10;99.90
23371;DHT22;11858;51.056;3.712;2023-07-20T01:18:19;16.10;99.90
23371;DHT22;11858;51.056;3.712;2023-07-20T01:20:45;16.00;99.90
23371;DHT22;11858;51.056;3.712;2023-07-20T01:23:36;16.00;99.90
23371;DHT22;11858;51.056;3.712;2023-07-20T01:31:52;15.90;99.90
23371;DHT22;11858;51.056;3.712;2023-07-20T01:34:19;15.90;99.90
23371;DHT22;11858;51.056;3.712;2023-07-20T01:36:48;15.90;99.90
23371;DHT22;11858;51.056;3.712;2023-07-20T01:39:16;15.80;99.90
23371;DHT22;11858;51.056;3.712;2023-07-20T01:41:42;15.80;99.90
23371;DHT22;11858;51.056;3.712;2023-07-20T01:44:08;15.80;99.90
23371;DHT22;11858;51.056;3.712;2023-07-20T01:46:34;15.70;99.90
23371;DHT22;11858;51.056;3.712;2023-07-20T01:48:59;15.70;99.90
23371;DHT22;11858;51.056;3.712;2023-07-20T01:51:25;15.70;99.90
23371;DHT22;11858;51.056;3.712;2023-07-20T01:53:50;15.70;99.90
23371;DHT22;11858;51.056;3.712;2023-07-20T01:56:16;15.60;99.90
23371;DHT22;11858;51.056;3.712;2023-07-20T01:58:42;15.60;99.90
23371;DHT22;11858;51.056;3.712;2023-07-20T02:01:07;15.60;99.90
23371;DHT22;11858;51.056;3.712;2023-07-20T02:03:33;15.60;99.90
23371;DHT22;11858;51.056;3.712;2023-07-20T02:05:59;15.60;99.90
23371;DHT22;11858;51.056;3.712;2023-07-20T02:08:24;15.50;99.90
23371;DHT22;11858;51.056;3.712;2023-07-20T02:10:50;15.50;99.90
23371;DHT22;11858;51.056;3.712;2023-07-20T02:13:16;15.50;99.90
23371;DHT22;11858;51.056;3.712;2023-07-20T02:15:42;15.50;99.90
23371;DHT22;11858;51.056;3.712;2023-07-20T02:18:08;15.50;99.90
23371;DHT22;11858;51.056;3.712;2023-07-20T02:20:35;15.60;99.90
23371;DHT22;11858;51.056;3.712;2023-07-20T02:23:00;15.70;99.90
23371;DHT22;11858;51.056;3.712;2023-07-20T02:25:26;15.70;99.90
23371;DHT22;11858;51.056;3.712;2023-07-20T02:27:52;15.90;99.90
23371;DHT22;11858;51.056;3.712;2023-07-20T02:30:18;16.00;99.90
23371;DHT22;11858;51.056;3.712;2023-07-20T02:32:44;16.00;99.90
23371;DHT22;11858;51.056;3.712;2023-07-20T02:35:11;16.00;99.90
23371;DHT22;11858;51.056;3.712;2023-07-20T02:37:37;16.00;99.90
23371;DHT22;11858;51.056;3.712;2023-07-20T02:40:03;16.10;99.90
23371;DHT22;11858;51.056;3.712;2023-07-20T02:42:30;16.20;99.90
23371;DHT22;11858;51.056;3.712;2023-07-20T02:44:56;16.10;99.90
23371;DHT22;11858;51.056;3.712;2023-07-20T02:47:22;16.10;99.90
23371;DHT22;11858;51.056;3.712;2023-07-20T02:49:47;16.20;99.90
23371;DHT22;11858;51.056;3.712;2023-07-20T02:52:13;16.20;99.90
23371;DHT22;11858;51.056;3.712;2023-07-20T02:54:39;16.20;99.90
23371;DHT22;11858;51.056;3.712;2023-07-20T02:57:04;16.20;99.90
23371;DHT22;11858;51.056;3.712;2023-07-20T02:59:30;16.10;99.90
23371;DHT22;11858;51.056;3.712;2023-07-20T03:01:56;16.00;99.90
23371;DHT22;11858;51.056;3.712;2023-07-20T03:04:25;16.00;99.90
23371;DHT22;11858;51.056;3.712;2023-07-20T03:06:51;16.00;99.90
23371;DHT22;11858;51.056;3.712;2023-07-20T03:09:16;16.10;99.90
23371;DHT22;11858;51.056;3.712;2023-07-20T03:11:42;16.10;99.90
23371;DHT22;11858;51.056;3.712;2023-07-20T03:14:08;16.20;99.90
23371;DHT22;11858;51.056;3.712;2023-07-20T03:16:33;16.30;99.90
23371;DHT22;11858;51.056;3.712;2023-07-20T03:19:00;16.30;99.90
23371;DHT22;11858;51.056;3.712;2023-07-20T03:21:29;16.30;99.90
23371;DHT22;11858;51.056;3.712;2023-07-20T03:23:55;16.20;99.90
23371;DHT22;11858;51.056;3.712;2023-07-20T03:26:20;16.10;99.90
23371;DHT22;11858;51.056;3.712;2023-07-20T03:28:46;16.10;99.90
23371;DHT22;11858;51.056;3.712;2023-07-20T03:31:12;16.10;99.90
23371;DHT22;11858;51.056;3.712;2023-07-20T03:33:38;16.10;99.90
23371;DHT22;11858;51.056;3.712;2023-07-20T03:36:04;16.10;99.90
23371;DHT22;11858;51.056;3.712;2023-07-20T03:38:30;16.10;99.90
23371;DHT22;11858;51.056;3.712;2023-07-20T03:40:57;16.00;99.90
23371;DHT22;11858;51.056;3.712;2023-07-20T03:43:24;16.00;99.90
23371;DHT22;11858;51.056;3.712;2023-07-20T03:45:51;16.00;99.90
23371;DHT22;11858;51.056;3.712;2023-07-20T03:48:20;16.00;99.90
23371;DHT22;11858;51.056;3.712;2023-07-20T03:50:49;16.00;99.90
23371;DHT22;11858;51.056;3.712;2023-07-20T03:53:15;16.00;99.90
23371;DHT22;11858;51.056;3.712;2023-07-20T03:55:48;16.10;99.90
23371;DHT22;11858;51.056;3.712;2023-07-20T03:58:14;16.10;99.90
23371;DHT22;11858;51.056;3.712;2023-07-20T04:00:42;16.10;99.90
23371;DHT22;11858;51.056;3.712;2023-07-20T04:03:08;16.10;99.90
23371;DHT22;11858;51.056;3.712;2023-07-20T04:05:34;16.10;99.90
23371;DHT22;11858;51.056;3.712;2023-07-20T04:07:59;16.20;99.90
23371;DHT22;11858;51.056;3.712;2023-07-20T04:10:25;16.10;99.90
23371;DHT22;11858;51.056;3.712;2023-07-20T04:12:51;16.10;99.90
23371;DHT22;11858;51.056;3.712;2023-07-20T04:15:16;16.10;99.90
23371;DHT22;11858;51.056;3.712;2023-07-20T04:17:42;16.10;99.90
23371;DHT22;11858;51.056;3.712;2023-07-20T04:20:08;16.10;99.90
23371;DHT22;11858;51.056;3.712;2023-07-20T04:22:34;16.10;99.90
23371;DHT22;11858;51.056;3.712;2023-07-20T04:24:59;16.10;99.90
23371;DHT22;11858;51.056;3.712;2023-07-20T04:27:25;16.00;99.90
23371;DHT22;11858;51.056;3.712;2023-07-20T04:29:52;16.10;99.90
23371;DHT22;11858;51.056;3.712;2023-07-20T04:32:17;16.10;99.90
23371;DHT22;11858;51.056;3.712;2023-07-20T04:34:43;16.10;99.90
23371;DHT22;11858;51.056;3.712;2023-07-20T04:37:08;16.10;99.90
23371;DHT22;11858;51.056;3.712;2023-07-20T04:39:34;16.20;99.90
23371;DHT22;11858;51.056;3.712;2023-07-20T04:42:00;16.20;99.90
23371;DHT22;11858;51.056;3.712;2023-07-20T04:44:26;16.20;99.90
23371;DHT22;11858;51.056;3.712;2023-07-20T04:46:51;16.20;99.90
23371;DHT22;11858;51.056;3.712;2023-07-20T04:49:17;16.20;99.90
23371;DHT22;11858;51.056;3.712;2023-07-20T04:51:43;16.30;99.90
23371;DHT22;11858;51.056;3.712;2023-07-20T04:54:08;16.30;99.90
23371;DHT22;11858;51.056;3.712;2023-07-20T04:56:34;16.40;99.90
23371;DHT22;11858;51.056;3.712;2023-07-20T04:58:59;16.40;99.90
23371;DHT22;11858;51.056;3.712;2023-07-20T05:01:25;16.50;99.90
23371;DHT22;11858;51.056;3.712;2023-07-20T05:03:52;16.50;99.90
23371;DHT22;11858;51.056;3.712;2023-07-20T05:06:18;16.60;99.90
23371;DHT22;11858;51.056;3.712;2023-07-20T05:08:44;16.60;99.90
23371;DHT22;11858;51.056;3.712;2023-07-20T05:11:10;16.70;99.90
23371;DHT22;11858;51.056;3.712;2023-07-20T05:13:37;16.70;99.90
23371;DHT22;11858;51.056;3.712;2023-07-20T05:16:03;16.70;99.90
23371;DHT22;11858;51.056;3.712;2023-07-20T05:18:29;16.80;99.90
23371;DHT22;11858;51.056;3.712;2023-07-20T05:20:54;16.90;99.90
23371;DHT22;11858;51.056;3.712;2023-07-20T05:23:21;17.00;99.90
23371;DHT22;11858;51.056;3.712;2023-07-20T05:25:51;17.10;99.90
23371;DHT22;11858;51.056;3.712;2023-07-20T05:28:19;17.10;99.90
23371;DHT22;11858;51.056;3.712;2023-07-20T05:30:44;17.10;99.90
23371;DHT22;11858;51.056;3.712;2023-07-20T05:33:10;17.20;99.90
23371;DHT22;11858;51.056;3.712;2023-07-20T05:35:36;17.30;99.90
23371;DHT22;11858;51.056;3.712;2023-07-20T05:38:02;17.40;99.90
23371;DHT22;11858;51.056;3.712;2023-07-20T05:40:29;17.50;99.90
23371;DHT22;11858;51.056;3.712;2023-07-20T05:42:55;17.60;99.90
23371;DHT22;11858;51.056;3.712;2023-07-20T05:45:22;17.70;99.90
23371;DHT22;11858;51.056;3.712;2023-07-20T05:47:48;17.80;99.90
23371;DHT22;11858;51.056;3.712;2023-07-20T05:50:14;18.00;99.90
23371;DHT22;11858;51.056;3.712;2023-07-20T05:52:40;18.00;99.90
23371;DHT22;11858;51.056;3.712;2023-07-20T05:55:06;18.10;99.90
23371;DHT22;11858;51.056;3.712;2023-07-20T05:57:32;18.10;99.90
23371;DHT22;11858;51.056;3.712;2023-07-20T05:59:58;18.20;99.90
23371;DHT22;11858;51.056;3.712;2023-07-20T06:02:24;18.30;99.90
23371;DHT22;11858;51.056;3.712;2023-07-20T06:04:49;18.30;99.90
23371;DHT22;11858;51.056;3.712;2023-07-20T06:07:15;18.40;99.90
23371;DHT22;11858;51.056;3.712;2023-07-20T06:09:40;18.50;99.90
23371;DHT22;11858;51.056;3.712;2023-07-20T06:12:07;18.60;99.90
23371;DHT22;11858;51.056;3.712;2023-07-20T06:14:33;18.70;99.90
23371;DHT22;11858;51.056;3.712;2023-07-20T06:16:59;18.80;99.90
23371;DHT22;11858;51.056;3.712;2023-07-20T06:19:25;19.00;99.90
23371;DHT22;11858;51.056;3.712;2023-07-20T06:21:50;19.10;99.90
23371;DHT22;11858;51.056;3.712;2023-07-20T06:24:19;19.20;99.90
23371;DHT22;11858;51.056;3.712;2023-07-20T06:26:45;19.10;99.90
23371;DHT22;11858;51.056;3.712;2023-07-20T06:29:10;19.20;99.90
23371;DHT22;11858;51.056;3.712;2023-07-20T06:31:36;19.30;99.90
23371;DHT22;11858;51.056;3.712;2023-07-20T06:34:03;19.40;99.90
23371;DHT22;11858;51.056;3.712;2023-07-20T06:36:29;19.50;99.90
23371;DHT22;11858;51.056;3.712;2023-07-20T06:38:55;19.60;99.90
23371;DHT22;11858;51.056;3.712;2023-07-20T06:41:21;19.80;99.90
23371;DHT22;11858;51.056;3.712;2023-07-20T06:43:47;19.90;99.90
23371;DHT22;11858;51.056;3.712;2023-07-20T06:46:13;19.90;99.90
23371;DHT22;11858;51.056;3.712;2023-07-20T06:48:39;19.90;99.90
23371;DHT22;11858;51.056;3.712;2023-07-20T06:51:06;19.90;99.90
23371;DHT22;11858;51.056;3.712;2023-07-20T06:53:32;20.10;99.90
23371;DHT22;11858;51.056;3.712;2023-07-20T06:55:58;20.20;99.90
23371;DHT22;11858;51.056;3.712;2023-07-20T06:58:24;20.40;99.90
23371;DHT22;11858;51.056;3.712;2023-07-20T07:00:50;20.40;99.90
23371;DHT22;11858;51.056;3.712;2023-07-20T07:03:16;20.40;99.90
23371;DHT22;11858;51.056;3.712;2023-07-20T07:05:42;20.40;99.90
23371;DHT22;11858;51.056;3.712;2023-07-20T07:08:08;20.30;99.90
23371;DHT22;11858;51.056;3.712;2023-07-20T07:10:35;20.50;99.90
23371;DHT22;11858;51.056;3.712;2023-07-20T07:13:01;20.50;99.90
23371;DHT22;11858;51.056;3.712;2023-07-20T07:15:27;20.70;99.90
23371;DHT22;11858;51.056;3.712;2023-07-20T07:17:53;20.60;99.90
23371;DHT22;11858;51.056;3.712;2023-07-20T07:20:19;20.50;99.90
23371;DHT22;11858;51.056;3.712;2023-07-20T07:22:44;20.60;99.90
23371;DHT22;11858;51.056;3.712;2023-07-20T07:25:10;20.60;99.90
23371;DHT22;11858;51.056;3.712;2023-07-20T07:27:36;20.80;99.90
23371;DHT22;11858;51.056;3.712;2023-07-20T07:30:03;20.90;99.90
23371;DHT22;11858;51.056;3.712;2023-07-20T07:32:29;21.10;99.90
23371;DHT22;11858;51.056;3.712;2023-07-20T07:34:54;21.10;99.90
23371;DHT22;11858;51.056;3.712;2023-07-20T07:37:20;21.10;99.90
23371;DHT22;11858;51.056;3.712;2023-07-20T07:39:46;21.20;99.90
23371;DHT22;11858;51.056;3.712;2023-07-20T07:42:12;21.10;99.90
23371;DHT22;11858;51.056;3.712;2023-07-20T07:44:38;21.00;99.90
23371;DHT22;11858;51.056;3.712;2023-07-20T07:47:04;21.00;99.90
23371;DHT22;11858;51.056;3.712;2023-07-20T07:49:31;21.20;99.90
23371;DHT22;11858;51.056;3.712;2023-07-20T07:51:57;21.40;99.90
23371;DHT22;11858;51.056;3.712;2023-07-20T07:54:22;21.80;99.90
23371;DHT22;11858;51.056;3.712;2023-07-20T07:56:48;21.90;99.90
23371;DHT22;11858;51.056;3.712;2023-07-20T07:59:14;22.10;99.90
23371;DHT22;11858;51.056;3.712;2023-07-20T08:01:40;22.30;99.90
23371;DHT22;11858;51.056;3.712;2023-07-20T08:04:05;22.30;99.90
23371;DHT22;11858;51.056;3.712;2023-07-20T08:06:31;22.30;99.90
23371;DHT22;11858;51.056;3.712;2023-07-20T08:08:57;22.60;99.90
23371;DHT22;11858;51.056;3.712;2023-07-20T08:11:23;22.60;99.90
23371;DHT22;11858;51.056;3.712;2023-07-20T08:13:49;22.80;99.90
23371;DHT22;11858;51.056;3.712;2023-07-20T08:16:15;23.40;99.90
23371;DHT22;11858;51.056;3.712;2023-07-20T08:18:41;23.60;99.90
23371;DHT22;11858;51.056;3.712;2023-07-20T08:21:06;23.70;99.90
23371;DHT22;11858;51.056;3.712;2023-07-20T08:23:32;23.60;99.90
23371;DHT22;11858;51.056;3.712;2023-07-20T08:25:58;23.10;99.90
23371;DHT22;11858;51.056;3.712;2023-07-20T08:28:24;23.10;99.90
23371;DHT22;11858;51.056;3.712;2023-07-20T08:30:51;23.00;99.90
23371;DHT22;11858;51.056;3.712;2023-07-20T08:33:18;23.00;99.90
23371;DHT22;11858;51.056;3.712;2023-07-20T08:35:45;23.10;99.90
23371;DHT22;11858;51.056;3.712;2023-07-20T08:38:11;23.40;99.90
23371;DHT22;11858;51.056;3.712;2023-07-20T08:40:41;23.80;99.90
23371;DHT22;11858;51.056;3.712;2023-07-20T08:43:08;23.70;99.90
23371;DHT22;11858;51.056;3.712;2023-07-20T08:45:34;23.70;99.90
23371;DHT22;11858;51.056;3.712;2023-07-20T08:48:01;23.90;99.90
23371;DHT22;11858;51.056;3.712;2023-07-20T08:50:32;24.00;99.90
23371;DHT22;11858;51.056;3.712;2023-07-20T08:52:59;24.10;99.90
23371;DHT22;11858;51.056;3.712;2023-07-20T08:55:26;24.20;99.90
23371;DHT22;11858;51.056;3.712;2023-07-20T08:57:57;24.10;99.90
23371;DHT22;11858;51.056;3.712;2023-07-20T09:00:23;24.40;99.90
23371;DHT22;11858;51.056;3.712;2023-07-20T09:02:50;24.10;99.90
23371;DHT22;11858;51.056;3.712;2023-07-20T09:05:17;24.00;99.90
23371;DHT22;11858;51.056;3.712;2023-07-20T09:07:43;23.80;99.90
23371;DHT22;11858;51.056;3.712;2023-07-20T09:10:09;23.80;99.90
23371;DHT22;11858;51.056;3.712;2023-07-20T09:12:37;23.80;99.90
23371;DHT22;11858;51.056;3.712;2023-07-20T09:15:04;24.20;99.90
23371;DHT22;11858;51.056;3.712;2023-07-20T09:17:30;24.60;99.90
23371;DHT22;11858;51.056;3.712;2023-07-20T09:19:55;24.70;99.90
23371;DHT22;11858;51.056;3.712;2023-07-20T09:22:21;25.20;99.90
23371;DHT22;11858;51.056;3.712;2023-07-20T09:24:47;26.60;99.90
23371;DHT22;11858;51.056;3.712;2023-07-20T09:27:13;26.90;99.90
23371;DHT22;11858;51.056;3.712;2023-07-20T09:29:49;27.20;99.90
23371;DHT22;11858;51.056;3.712;2023-07-20T09:32:18;26.50;99.90
23371;DHT22;11858;51.056;3.712;2023-07-20T09:34:45;26.00;99.90
23371;DHT22;11858;51.056;3.712;2023-07-20T09:37:11;25.90;99.90
23371;DHT22;11858;51.056;3.712;2023-07-20T09:39:44;26.30;99.90
23371;DHT22;11858;51.056;3.712;2023-07-20T09:42:11;26.20;99.90
23371;DHT22;11858;51.056;3.712;2023-07-20T09:44:39;25.90;99.90
23371;DHT22;11858;51.056;3.712;2023-07-20T09:47:05;24.90;99.90
23371;DHT22;11858;51.056;3.712;2023-07-20T09:49:31;24.30;99.90
23371;DHT22;11858;51.056;3.712;2023-07-20T09:52:01;24.30;99.90
23371;DHT22;11858;51.056;3.712;2023-07-20T09:54:28;24.40;99.90
23371;DHT22;11858;51.056;3.712;2023-07-20T09:56:55;24.40;99.90
23371;DHT22;11858;51.056;3.712;2023-07-20T09:59:21;24.00;99.90
23371;DHT22;11858;51.056;3.712;2023-07-20T10:01:47;24.00;99.90
23371;DHT22;11858;51.056;3.712;2023-07-20T10:04:16;24.30;99.90
23371;DHT22;11858;51.056;3.712;2023-07-20T10:06:47;24.50;99.90
23371;DHT22;11858;51.056;3.712;2023-07-20T10:09:15;24.80;99.90
23371;DHT22;11858;51.056;3.712;2023-07-20T10:11:49;25.40;99.90
23371;DHT22;11858;51.056;3.712;2023-07-20T10:14:21;25.70;99.90
23371;DHT22;11858;51.056;3.712;2023-07-20T10:16:50;27.40;99.90
23371;DHT22;11858;51.056;3.712;2023-07-20T10:19:43;28.50;99.90
23371;DHT22;11858;51.056;3.712;2023-07-20T10:22:14;29.80;99.90
23371;DHT22;11858;51.056;3.712;2023-07-20T10:24:44;28.70;99.90
23371;DHT22;11858;51.056;3.712;2023-07-20T10:27:10;27.60;99.90
23371;DHT22;11858;51.056;3.712;2023-07-20T10:29:36;28.30;99.90
23371;DHT22;11858;51.056;3.712;2023-07-20T10:32:02;27.90;99.90
23371;DHT22;11858;51.056;3.712;2023-07-20T10:34:28;27.80;99.90
23371;DHT22;11858;51.056;3.712;2023-07-20T10:36:54;28.90;99.90
23371;DHT22;11858;51.056;3.712;2023-07-20T10:39:40;29.20;99.90
23371;DHT22;11858;51.056;3.712;2023-07-20T10:42:10;29.80;99.90
23371;DHT22;11858;51.056;3.712;2023-07-20T10:44:39;29.20;99.90
23371;DHT22;11858;51.056;3.712;2023-07-20T10:47:09;29.00;99.90
23371;DHT22;11858;51.056;3.712;2023-07-20T10:49:59;28.60;99.90
23371;DHT22;11858;51.056;3.712;2023-07-20T10:52:37;28.40;99.90
23371;DHT22;11858;51.056;3.712;2023-07-20T10:55:16;27.50;99.90
23371;DHT22;11858;51.056;3.712;2023-07-20T10:57:42;26.80;99.90
23371;DHT22;11858;51.056;3.712;2023-07-20T11:00:12;26.60;99.90
23371;DHT22;11858;51.056;3.712;2023-07-20T11:02:46;26.20;99.90
23371;DHT22;11858;51.056;3.712;2023-07-20T11:05:40;26.40;99.90
23371;DHT22;11858;51.056;3.712;2023-07-20T11:08:11;26.20;99.90
23371;DHT22;11858;51.056;3.712;2023-07-20T11:10:37;25.70;99.90
23371;DHT22;11858;51.056;3.712;2023-07-20T11:13:20;25.30;99.90
23371;DHT22;11858;51.056;3.712;2023-07-20T11:18:25;24.70;99.90
23371;DHT22;11858;51.056;3.712;2023-07-20T11:20:51;24.70;99.90
23371;DHT22;11858;51.056;3.712;2023-07-20T11:23:20;24.80;99.90
23371;DHT22;11858;51.056;3.712;2023-07-20T11:25:46;24.40;99.90
23371;DHT22;11858;51.056;3.712;2023-07-20T11:28:12;24.50;99.90
23371;DHT22;11858;51.056;3.712;2023-07-20T11:30:38;24.40;99.90
23371;DHT22;11858;51.056;3.712;2023-07-20T11:33:05;24.00;99.90
23371;DHT22;11858;51.056;3.712;2023-07-20T11:35:35;24.00;99.90
23371;DHT22;11858;51.056;3.712;2023-07-20T11:38:02;24.20;99.90
23371;DHT22;11858;51.056;3.712;2023-07-20T11:40:27;24.20;99.90
23371;DHT22;11858;51.056;3.712;2023-07-20T11:42:53;24.20;99.90
23371;DHT22;11858;51.056;3.712;2023-07-20T11:45:19;24.50;99.90
23371;DHT22;11858;51.056;3.712;2023-07-20T11:47:45;24.50;99.90
23371;DHT22;11858;51.056;3.712;2023-07-20T11:50:11;24.20;99.90
23371;DHT22;11858;51.056;3.712;2023-07-20T11:52:39;24.10;99.90
23371;DHT22;11858;51.056;3.712;2023-07-20T11:55:07;23.80;99.90
23371;DHT22;11858;51.056;3.712;2023-07-20T11:57:33;23.80;99.90
23371;DHT22;11858;51.056;3.712;2023-07-20T12:00:02;23.70;99.90
23371;DHT22;11858;51.056;3.712;2023-07-20T12:02:30;23.60;99.90
23371;DHT22;11858;51.056;3.712;2023-07-20T12:04:56;23.70;99.90
23371;DHT22;11858;51.056;3.712;2023-07-20T12:07:22;23.70;99.90
23371;DHT22;11858;51.056;3.712;2023-07-20T12:10:07;23.90;99.90
23371;DHT22;11858;51.056;3.712;2023-07-20T12:12:34;23.80;99.90
23371;DHT22;11858;51.056;3.712;2023-07-20T12:17:50;24.00;99.90
23371;DHT22;11858;51.056;3.712;2023-07-20T12:20:33;25.00;99.90
23371;DHT22;11858;51.056;3.712;2023-07-20T12:23:02;25.30;99.90
23371;DHT22;11858;51.056;3.712;2023-07-20T12:28:14;26.30;99.90
23371;DHT22;11858;51.056;3.712;2023-07-20T12:30:41;26.30;99.90
23371;DHT22;11858;51.056;3.712;2023-07-20T12:33:07;25.80;99.90
23371;DHT22;11858;51.056;3.712;2023-07-20T12:35:33;25.30;99.90
23371;DHT22;11858;51.056;3.712;2023-07-20T12:38:00;25.00;99.90
23371;DHT22;11858;51.056;3.712;2023-07-20T12:40:26;24.80;99.90
23371;DHT22;11858;51.056;3.712;2023-07-20T12:42:52;25.80;99.90
23371;DHT22;11858;51.056;3.712;2023-07-20T12:45:18;27.50;99.90
23371;DHT22;11858;51.056;3.712;2023-07-20T12:47:43;28.50;99.90
23371;DHT22;11858;51.056;3.712;2023-07-20T12:50:10;28.90;99.90
23371;DHT22;11858;51.056;3.712;2023-07-20T12:52:36;28.80;99.90
23371;DHT22;11858;51.056;3.712;2023-07-20T12:55:04;29.30;99.90
23371;DHT22;11858;51.056;3.712;2023-07-20T12:57:30;30.00;99.90
23371;DHT22;11858;51.056;3.712;2023-07-20T12:59:55;30.60;99.90
23371;DHT22;11858;51.056;3.712;2023-07-20T13:02:21;30.30;99.90
23371;DHT22;11858;51.056;3.712;2023-07-20T13:04:47;29.90;99.90
23371;DHT22;11858;51.056;3.712;2023-07-20T13:07:13;29.60;99.90
23371;DHT22;11858;51.056;3.712;2023-07-20T13:09:38;29.60;99.90
23371;DHT22;11858;51.056;3.712;2023-07-20T13:12:04;28.80;99.90
23371;DHT22;11858;51.056;3.712;2023-07-20T13:14:30;28.10;99.90
23371;DHT22;11858;51.056;3.712;2023-07-20T13:16:56;28.00;99.90
23371;DHT22;11858;51.056;3.712;2023-07-20T13:19:22;27.40;99.90
23371;DHT22;11858;51.056;3.712;2023-07-20T13:21:47;26.80;99.90
23371;DHT22;11858;51.056;3.712;2023-07-20T13:24:13;26.70;99.90
23371;DHT22;11858;51.056;3.712;2023-07-20T13:26:39;26.60;99.90
23371;DHT22;11858;51.056;3.712;2023-07-20T13:29:05;26.60;99.90
23371;DHT22;11858;51.056;3.712;2023-07-20T13:31:31;26.20;99.90
23371;DHT22;11858;51.056;3.712;2023-07-20T13:33:56;26.00;99.90
23371;DHT22;11858;51.056;3.712;2023-07-20T13:36:23;25.80;99.90
23371;DHT22;11858;51.056;3.712;2023-07-20T13:38:49;25.80;99.90
23371;DHT22;11858;51.056;3.712;2023-07-20T13:41:15;25.40;99.90
23371;DHT22;11858;51.056;3.712;2023-07-20T13:43:42;25.10;99.90
23371;DHT22;11858;51.056;3.712;2023-07-20T13:46:07;25.00;99.90
23371;DHT22;11858;51.056;3.712;2023-07-20T13:48:33;24.90;99.90
23371;DHT22;11858;51.056;3.712;2023-07-20T13:50:59;24.70;99.90
23371;DHT22;11858;51.056;3.712;2023-07-20T13:53:24;24.50;99.90
23371;DHT22;11858;51.056;3.712;2023-07-20T13:55:50;24.30;99.90
23371;DHT22;11858;51.056;3.712;2023-07-20T13:58:17;24.10;99.90
23371;DHT22;11858;51.056;3.712;2023-07-20T14:00:43;24.30;99.90
23371;DHT22;11858;51.056;3.712;2023-07-20T14:03:08;24.00;99.90
23371;DHT22;11858;51.056;3.712;2023-07-20T14:05:35;23.70;99.90
23371;DHT22;11858;51.056;3.712;2023-07-20T14:08:00;23.20;99.90
23371;DHT22;11858;51.056;3.712;2023-07-20T14:10:26;22.50;99.90
23371;DHT22;11858;51.056;3.712;2023-07-20T14:12:52;22.20;99.90
23371;DHT22;11858;51.056;3.712;2023-07-20T14:15:17;21.90;99.90
23371;DHT22;11858;51.056;3.712;2023-07-20T14:17:44;21.50;99.90
23371;DHT22;11858;51.056;3.712;2023-07-20T14:20:10;21.30;99.90
23371;DHT22;11858;51.056;3.712;2023-07-20T14:22:36;21.10;99.90
23371;DHT22;11858;51.056;3.712;2023-07-20T14:25:02;21.00;99.90
23371;DHT22;11858;51.056;3.712;2023-07-20T14:27:28;20.80;99.90
23371;DHT22;11858;51.056;3.712;2023-07-20T14:29:53;20.90;99.90
23371;DHT22;11858;51.056;3.712;2023-07-20T14:32:20;20.80;99.90
23371;DHT22;11858;51.056;3.712;2023-07-20T14:34:46;20.80;99.90
23371;DHT22;11858;51.056;3.712;2023-07-20T14:37:11;20.70;99.90
23371;DHT22;11858;51.056;3.712;2023-07-20T14:39:38;20.70;99.90
23371;DHT22;11858;51.056;3.712;2023-07-20T14:42:04;20.70;99.90
23371;DHT22;11858;51.056;3.712;2023-07-20T14:44:30;20.70;99.90
23371;DHT22;11858;51.056;3.712;2023-07-20T14:46:56;20.70;99.90
23371;DHT22;11858;51.056;3.712;2023-07-20T14:49:21;20.90;99.90
23371;DHT22;11858;51.056;3.712;2023-07-20T14:51:47;21.00;99.90
23371;DHT22;11858;51.056;3.712;2023-07-20T14:54:13;20.80;99.90
23371;DHT22;11858;51.056;3.712;2023-07-20T14:56:39;20.80;99.90
23371;DHT22;11858;51.056;3.712;2023-07-20T14:59:13;20.60;99.90
23371;DHT22;11858;51.056;3.712;2023-07-20T15:01:39;20.60;99.90
23371;DHT22;11858;51.056;3.712;2023-07-20T15:04:05;20.60;99.90
23371;DHT22;11858;51.056;3.712;2023-07-20T15:06:30;20.50;99.90
23371;DHT22;11858;51.056;3.712;2023-07-20T15:08:57;20.50;99.90
23371;DHT22;11858;51.056;3.712;2023-07-20T15:11:23;20.50;99.90
23371;DHT22;11858;51.056;3.712;2023-07-20T15:13:49;20.40;99.90
23371;DHT22;11858;51.056;3.712;2023-07-20T15:16:14;20.20;99.90
23371;DHT22;11858;51.056;3.712;2023-07-20T15:18:40;20.30;99.90
23371;DHT22;11858;51.056;3.712;2023-07-20T15:21:06;20.40;99.90
23371;DHT22;11858;51.056;3.712;2023-07-20T15:23:31;20.60;99.90
23371;DHT22;11858;51.056;3.712;2023-07-20T15:25:57;20.70;99.90
23371;DHT22;11858;51.056;3.712;2023-07-20T15:28:23;20.90;99.90
23371;DHT22;11858;51.056;3.712;2023-07-20T15:30:49;21.10;99.90
23371;DHT22;11858;51.056;3.712;2023-07-20T15:33:15;21.20;99.90
23371;DHT22;11858;51.056;3.712;2023-07-20T15:35:41;21.30;99.90
23371;DHT22;11858;51.056;3.712;2023-07-20T15:38:06;21.50;99.90
23371;DHT22;11858;51.056;3.712;2023-07-20T15:40:33;21.50;99.90
23371;DHT22;11858;51.056;3.712;2023-07-20T15:42:58;21.70;99.90